createdAt,value
2023-04-28T00:02:31.511Z,7.50
2023-04-28T00:07:34.844Z,7.50
2023-04-28T00:12:37.644Z,8.60
2023-04-28T00:17:40.351Z,8.20
2023-04-28T00:22:42.948Z,6.50
2023-04-28T00:27:45.547Z,6.90
2023-04-28T00:32:48.123Z,5.60
2023-04-28T00:37:50.703Z,7.20
2023-04-28T00:42:53.281Z,6.70
2023-04-28T00:47:58.842Z,6.30
2023-04-28T00:53:01.802Z,5.90
2023-04-28T00:58:09.667Z,5.20
2023-04-28T01:03:12.573Z,5.90
2023-04-28T01:08:15.500Z,5.60
2023-04-28T01:13:18.062Z,5.30
2023-04-28T01:18:25.118Z,6.30
2023-04-28T01:23:27.632Z,5.70
2023-04-28T01:28:30.199Z,6.10
2023-04-28T01:33:32.711Z,6.60
2023-04-28T01:38:35.213Z,5.80
2023-04-28T01:43:37.776Z,6.00
2023-04-28T01:48:40.322Z,5.70
2023-04-28T01:53:42.894Z,5.30
2023-04-28T01:58:45.534Z,7.10
2023-04-28T02:03:49.072Z,6.90
2023-04-28T02:08:51.779Z,6.30
2023-04-28T02:13:54.511Z,6.50
2023-04-28T02:18:57.075Z,5.40
2023-04-28T02:24:00.252Z,5.20
2023-04-28T02:29:04.384Z,5.40
2023-04-28T02:34:07.051Z,5.60
2023-04-28T02:39:09.986Z,6.80
2023-04-28T02:44:12.524Z,6.70
2023-04-28T02:49:15.183Z,5.70
2023-04-28T02:54:27.176Z,5.30
2023-04-28T02:59:30.515Z,5.30
2023-04-28T03:04:33.342Z,5.60
2023-04-28T03:09:36.026Z,5.80
2023-04-28T03:14:38.555Z,6.10
2023-04-28T03:19:41.292Z,5.40
2023-04-28T03:24:43.876Z,5.10
2023-04-28T03:29:46.368Z,6.70
2023-04-28T03:34:48.877Z,7.00
2023-04-28T03:39:51.444Z,7.20
2023-04-28T03:44:54.262Z,6.60
2023-04-28T03:49:58.788Z,5.40
2023-04-28T03:55:01.529Z,5.40
2023-04-28T04:00:05.633Z,5.10
2023-04-28T04:05:09.011Z,5.40
2023-04-28T04:10:11.813Z,4.80
2023-04-28T04:15:14.552Z,5.20
2023-04-28T04:20:17.261Z,5.60
2023-04-28T04:25:22.049Z,5.90
2023-04-28T04:30:25.873Z,5.30
2023-04-28T04:35:28.540Z,4.20
2023-04-28T04:40:31.169Z,5.30
2023-04-28T04:45:33.795Z,5.30
2023-04-28T04:50:36.423Z,5.10
2023-04-28T04:55:39.863Z,4.60
2023-04-28T05:00:42.694Z,5.70
2023-04-28T05:05:46.322Z,5.50
2023-04-28T05:10:49.119Z,6.00
2023-04-28T05:15:51.692Z,5.00
2023-04-28T05:20:54.267Z,7.30
2023-04-28T05:25:57.028Z,13.70
2023-04-28T05:30:59.562Z,9.80
2023-04-28T05:36:02.198Z,10.40
2023-04-28T05:41:04.815Z,10.50
2023-04-28T05:46:18.266Z,5.70
2023-04-28T05:51:29.986Z,12.20
2023-04-28T05:56:33.228Z,6.70
2023-04-28T06:01:36.012Z,6.40
2023-04-28T06:06:38.987Z,5.50
2023-04-28T06:11:41.715Z,5.10
2023-04-28T06:16:44.487Z,5.30
2023-04-28T06:21:47.378Z,5.10
2023-04-28T06:26:50.085Z,6.10
2023-04-28T06:31:53.070Z,4.50
2023-04-28T06:36:56.047Z,4.60
2023-04-28T06:41:58.599Z,3.70
2023-04-28T06:47:01.807Z,4.10
2023-04-28T06:52:04.856Z,3.90
2023-04-28T06:57:07.754Z,4.30
2023-04-28T07:02:10.717Z,3.40
2023-04-28T07:07:13.977Z,3.50
2023-04-28T07:12:16.520Z,3.40
2023-04-28T07:17:19.383Z,3.10
2023-04-28T07:22:21.966Z,2.60
2023-04-28T07:27:24.605Z,3.90
2023-04-28T07:32:27.231Z,4.10
2023-04-28T07:37:31.215Z,3.40
2023-04-28T07:42:34.967Z,3.30
2023-04-28T07:47:38.519Z,2.90
2023-04-28T07:52:41.157Z,2.60
2023-04-28T07:57:44.081Z,1.80
2023-04-28T08:02:46.835Z,3.00
2023-04-28T08:07:49.499Z,3.10
2023-04-28T08:12:52.504Z,3.10
2023-04-28T08:17:55.219Z,3.10
2023-04-28T08:22:58.548Z,2.50
2023-04-28T08:28:03.520Z,3.20
2023-04-28T08:33:07.412Z,2.60
2023-04-28T08:38:14.078Z,2.10
2023-04-28T08:43:17.011Z,2.40
2023-04-28T08:48:21.490Z,2.00
2023-04-28T08:53:26.375Z,1.80
2023-04-28T08:58:29.434Z,2.10
2023-04-28T09:03:34.965Z,2.00
2023-04-28T09:08:37.623Z,2.00
2023-04-28T09:13:41.051Z,1.70
2023-04-28T09:18:57.032Z,1.70
2023-04-28T09:23:59.619Z,1.70
2023-04-28T09:29:14.243Z,1.90
2023-04-28T09:34:18.030Z,2.00
2023-04-28T09:39:31.674Z,1.90
2023-04-28T09:44:34.724Z,2.20
2023-04-28T09:49:55.128Z,2.20
2023-04-28T09:55:04.115Z,1.70
2023-04-28T10:00:09.245Z,1.90
2023-04-28T10:10:17.044Z,3.40
2023-04-28T10:15:20.457Z,2.00
2023-04-28T10:20:25.516Z,1.90
2023-04-28T10:25:31.198Z,1.70
2023-04-28T10:30:35.022Z,2.00
2023-04-28T10:35:47.927Z,2.40
2023-04-28T10:40:54.304Z,1.80
2023-04-28T10:46:03.717Z,1.90
2023-04-28T10:51:15.332Z,2.00
2023-04-28T10:56:23.570Z,1.70
2023-04-28T11:01:31.906Z,1.70
2023-04-28T11:06:45.800Z,1.90
2023-04-28T11:11:54.578Z,1.90
2023-04-28T11:17:01.478Z,2.20
2023-04-28T11:22:13.493Z,1.50
2023-04-28T11:27:24.484Z,1.80
2023-04-28T11:32:32.601Z,2.10
2023-04-28T11:37:36.756Z,1.90
2023-04-28T11:42:49.378Z,2.00
2023-04-28T11:47:52.226Z,2.00
2023-04-28T11:52:54.946Z,1.90
2023-04-28T11:58:27.971Z,2.00
2023-04-28T12:03:32.597Z,2.00
2023-04-28T12:08:35.970Z,2.20
2023-04-28T12:13:39.935Z,2.20
2023-04-28T12:18:58.918Z,2.20
2023-04-28T12:24:01.788Z,1.80
2023-04-28T12:29:04.438Z,2.20
2023-04-28T12:34:07.780Z,2.20
2023-04-28T12:39:16.506Z,2.30
2023-04-28T12:44:20.330Z,2.00
2023-04-28T12:49:23.186Z,2.30
2023-04-28T12:54:25.751Z,1.70
2023-04-28T12:59:28.944Z,2.10
2023-04-28T13:04:32.300Z,2.10
2023-04-28T13:09:36.814Z,2.30
2023-04-28T13:14:40.537Z,2.10
2023-04-28T13:19:43.875Z,2.20
2023-04-28T13:24:46.947Z,2.30
2023-04-28T13:29:49.736Z,2.20
2023-04-28T13:34:52.300Z,2.30
2023-04-28T13:39:54.917Z,2.50
2023-04-28T13:44:57.797Z,2.30
2023-04-28T13:50:00.413Z,2.40
2023-04-28T13:55:03.107Z,2.10
2023-04-28T14:00:06.420Z,2.10
2023-04-28T14:05:09.505Z,2.10
2023-04-28T14:10:12.150Z,2.30
2023-04-28T14:15:16.066Z,3.20
2023-04-28T14:25:21.457Z,2.30
2023-04-28T14:30:25.845Z,2.70
2023-04-28T14:35:30.179Z,2.20
2023-04-28T14:40:33.272Z,2.20
2023-04-28T14:45:36.536Z,2.40
2023-04-28T14:50:40.354Z,2.30
2023-04-28T14:55:43.532Z,2.30
2023-04-28T15:00:46.053Z,2.40
2023-04-28T15:05:48.622Z,2.20
2023-04-28T15:10:51.245Z,2.60
2023-04-28T15:15:53.934Z,2.70
2023-04-28T15:20:56.587Z,2.60
2023-04-28T15:25:59.153Z,2.30
2023-04-28T15:31:01.828Z,2.60
2023-04-28T15:36:05.115Z,2.60
2023-04-28T15:41:08.356Z,2.10
2023-04-28T15:46:11.074Z,2.30
2023-04-28T15:51:13.702Z,2.50
2023-04-28T15:56:19.760Z,2.30
2023-04-28T16:01:22.660Z,2.10
2023-04-28T16:06:25.574Z,2.20
2023-04-28T16:11:29.668Z,2.20
2023-04-28T16:16:32.560Z,2.40
2023-04-28T16:21:35.114Z,2.60
2023-04-28T16:26:37.726Z,2.80
2023-04-28T16:31:40.517Z,2.80
2023-04-28T16:36:44.319Z,2.80
2023-04-28T16:41:46.953Z,2.70
2023-04-28T16:46:49.476Z,3.20
2023-04-28T16:51:59.607Z,2.60
2023-04-28T16:57:05.140Z,3.10
2023-04-28T17:02:07.869Z,2.70
2023-04-28T17:07:10.499Z,2.70
2023-04-28T17:12:13.118Z,2.80
2023-04-28T17:17:16.150Z,2.90
2023-04-28T17:22:18.792Z,2.80
2023-04-28T17:27:21.441Z,2.90
2023-04-28T17:32:24.066Z,2.80
2023-04-28T17:37:27.748Z,3.00
2023-04-28T17:42:31.729Z,2.90
2023-04-28T17:47:34.447Z,4.80
2023-04-28T17:52:37.457Z,3.70
2023-04-28T17:57:40.057Z,3.70
2023-04-28T18:02:42.693Z,4.80
2023-04-28T18:07:45.603Z,4.70
2023-04-28T18:12:48.220Z,4.40
2023-04-28T18:17:50.966Z,4.10
2023-04-28T18:22:53.634Z,4.50
2023-04-28T18:27:56.188Z,4.60
2023-04-28T18:32:58.806Z,4.80
2023-04-28T18:38:01.510Z,4.70
2023-04-28T18:43:08.775Z,4.90
2023-04-28T18:48:11.634Z,3.70
2023-04-28T18:53:14.529Z,3.00
2023-04-28T18:58:17.072Z,3.40
2023-04-28T19:03:20.082Z,4.00
2023-04-28T19:08:23.393Z,4.60
2023-04-28T19:13:26.286Z,11.60
2023-04-28T19:18:33.133Z,19.40
2023-04-28T19:23:35.749Z,9.10
2023-04-28T19:28:38.376Z,6.30
2023-04-28T19:33:41.231Z,6.00
2023-04-28T19:38:44.444Z,5.50
2023-04-28T19:43:47.168Z,5.20
2023-04-28T19:48:50.438Z,4.90
2023-04-28T19:53:55.159Z,5.00
2023-04-28T19:59:00.966Z,6.10
2023-04-28T20:04:03.660Z,5.30
2023-04-28T20:09:06.504Z,4.30
2023-04-28T20:14:09.608Z,5.70
2023-04-28T20:19:12.257Z,6.70
2023-04-28T20:24:14.818Z,6.60
2023-04-28T20:29:17.901Z,7.70
2023-04-28T20:34:22.132Z,8.40
2023-04-28T20:39:25.694Z,7.70
2023-04-28T20:44:28.452Z,5.90
2023-04-28T20:49:31.052Z,5.90
2023-04-28T20:54:35.736Z,5.60
2023-04-28T20:59:38.366Z,4.00
2023-04-28T21:04:40.992Z,4.70
2023-04-28T21:09:43.587Z,3.80
2023-04-28T21:14:46.223Z,3.70
2023-04-28T21:19:49.379Z,4.60
2023-04-28T21:24:54.383Z,3.90
2023-04-28T21:29:56.945Z,4.70
2023-04-28T21:34:59.489Z,3.80
2023-04-28T21:40:02.668Z,4.40
2023-04-28T21:45:07.361Z,4.60
2023-04-28T21:50:10.150Z,4.80
2023-04-28T21:55:12.701Z,4.10
2023-04-28T22:00:16.604Z,4.90
2023-04-28T22:05:19.395Z,5.90
2023-04-28T22:10:22.738Z,6.10
2023-04-28T22:15:25.449Z,4.90
2023-04-28T22:20:28.144Z,4.70
2023-04-28T22:25:31.084Z,5.40
2023-04-28T22:30:33.655Z,4.80
2023-04-28T22:35:36.469Z,5.50
2023-04-28T22:40:39.033Z,4.50
2023-04-28T22:45:45.458Z,3.60
2023-04-28T22:50:48.027Z,5.50
2023-04-28T22:55:51.267Z,4.90
2023-04-28T23:00:53.812Z,4.40
2023-04-28T23:05:56.405Z,3.90
2023-04-28T23:10:59.436Z,4.30
2023-04-28T23:16:02.057Z,5.10
2023-04-28T23:21:04.611Z,4.60
2023-04-28T23:26:07.124Z,4.60
2023-04-28T23:31:09.743Z,4.90
2023-04-28T23:36:12.705Z,3.80
2023-04-28T23:41:16.034Z,3.70
2023-04-28T23:46:18.985Z,3.90
2023-04-28T23:51:21.821Z,4.20
2023-04-28T23:56:24.341Z,4.00
